createdAt,value
2018-12-04T17:55:45.033Z,3.27
2018-12-04T17:58:17.296Z,2.70
2018-12-04T18:02:43.581Z,3.27
2018-12-04T18:05:12.792Z,3.63
2018-12-04T18:07:41.943Z,4.03
2018-12-04T18:10:11.844Z,2.70
2018-12-04T18:12:40.982Z,2.37
2018-12-04T18:15:10.213Z,2.63
2018-12-04T18:17:39.402Z,2.80
2018-12-04T18:20:08.614Z,3.10
2018-12-04T18:22:38.105Z,3.40
2018-12-04T18:25:07.466Z,3.23
2018-12-04T18:27:36.715Z,2.50
2018-12-04T18:30:06.935Z,3.20
2018-12-04T18:32:36.214Z,4.90
2018-12-04T18:35:05.967Z,4.30
2018-12-04T18:37:35.289Z,3.60
2018-12-04T18:40:04.826Z,2.92
2018-12-04T18:42:34.123Z,3.40
2018-12-04T18:45:03.495Z,3.20
2018-12-04T18:47:32.956Z,2.72
2018-12-04T18:50:02.241Z,2.70
2018-12-04T18:52:31.418Z,2.70
2018-12-04T18:55:00.614Z,3.10
2018-12-04T18:57:30.118Z,2.67
2018-12-04T18:59:59.293Z,3.45
2018-12-04T19:02:28.686Z,3.67
2018-12-04T19:04:57.883Z,2.50
2018-12-04T19:07:27.143Z,2.83
2018-12-04T19:09:56.460Z,3.17
2018-12-04T19:12:25.773Z,2.50
2018-12-04T19:14:54.996Z,2.60
2018-12-04T19:17:24.316Z,2.60
2018-12-04T19:19:54.023Z,3.27
2018-12-04T19:22:23.202Z,4.03
2018-12-04T19:24:53.072Z,3.80
2018-12-04T19:27:22.289Z,3.72
2018-12-04T19:29:51.914Z,4.00
2018-12-04T19:32:21.289Z,4.20
2018-12-04T19:34:50.537Z,4.10
2018-12-04T19:37:20.048Z,3.67
2018-12-04T19:39:49.914Z,4.17
2018-12-04T19:42:19.231Z,3.73
2018-12-04T19:44:48.786Z,3.63
2018-12-04T19:47:18.055Z,3.08
2018-12-04T19:49:48.244Z,3.73
2018-12-04T19:52:18.168Z,4.15
2018-12-04T19:54:48.261Z,3.55
2018-12-04T19:57:18.512Z,3.62
2018-12-04T19:59:48.348Z,3.50
2018-12-04T20:02:18.199Z,3.80
2018-12-04T20:04:48.281Z,4.00
2018-12-04T20:07:18.243Z,3.80
2018-12-04T20:09:48.265Z,4.15
2018-12-04T20:12:18.649Z,3.47
2018-12-04T20:14:48.402Z,3.60
2018-12-04T20:17:18.514Z,4.40
2018-12-04T20:19:48.509Z,3.80
2018-12-04T20:22:18.448Z,3.50
2018-12-04T20:24:48.509Z,3.95
2018-12-04T20:27:18.462Z,3.98
2018-12-04T20:29:48.467Z,4.83
2018-12-04T20:32:18.418Z,5.23
2018-12-04T20:34:48.485Z,4.60
2018-12-04T20:37:18.579Z,4.80
2018-12-04T20:39:48.741Z,4.45
2018-12-04T20:42:23.287Z,4.17
2018-12-04T20:44:50.057Z,4.33
2018-12-04T20:47:19.269Z,3.73
2018-12-04T20:49:48.705Z,3.90
2018-12-04T20:52:18.765Z,3.27
2018-12-04T20:54:48.687Z,3.90
2018-12-04T20:57:18.788Z,4.12
2018-12-04T20:59:48.783Z,3.33
2018-12-04T21:02:18.135Z,3.90
2018-12-04T21:04:47.434Z,3.20
2018-12-04T21:07:16.676Z,3.77
2018-12-04T21:09:45.878Z,3.20
2018-12-04T21:12:15.050Z,3.60
2018-12-04T21:14:44.414Z,3.40
2018-12-04T21:17:13.622Z,3.20
2018-12-04T21:19:42.815Z,4.00
2018-12-04T21:22:12.002Z,3.43
2018-12-04T21:24:41.163Z,3.20
2018-12-04T21:27:14.425Z,2.70
2018-12-04T21:29:48.762Z,2.67
2018-12-04T21:32:23.100Z,3.50
2018-12-04T21:37:03.999Z,3.33
2018-12-04T21:39:36.260Z,7.50
2018-12-04T21:42:11.303Z,8.50
2018-12-04T21:45:44.264Z,8.40
2018-12-04T21:48:14.211Z,8.93
2018-12-04T21:50:43.391Z,7.67
2018-12-04T21:53:12.759Z,6.57
2018-12-04T21:55:41.972Z,6.90
2018-12-04T21:58:11.281Z,6.77
2018-12-04T22:00:40.482Z,6.50
2018-12-04T22:03:09.628Z,5.47
2018-12-04T22:05:38.746Z,5.80
2018-12-04T22:08:07.854Z,5.70
2018-12-04T22:10:37.195Z,6.03
2018-12-04T22:13:06.341Z,6.17
2018-12-04T22:15:35.454Z,6.07
2018-12-04T22:18:04.649Z,5.77
2018-12-04T22:20:33.878Z,6.73
2018-12-04T22:23:03.371Z,5.55
2018-12-04T22:25:32.580Z,5.43
2018-12-04T22:28:01.713Z,5.30
2018-12-04T22:30:30.922Z,4.90
2018-12-04T22:33:00.101Z,6.67
2018-12-04T22:35:29.244Z,5.33
2018-12-04T22:37:58.426Z,4.80
2018-12-04T22:40:27.597Z,4.83
2018-12-04T22:42:58.087Z,4.83
2018-12-04T22:45:27.409Z,4.40
2018-12-04T22:47:56.597Z,4.50
2018-12-04T22:50:25.884Z,10.83
2018-12-04T22:52:55.057Z,7.83
2018-12-04T22:55:24.221Z,6.30
2018-12-04T22:57:53.390Z,6.50
2018-12-04T23:00:32.814Z,6.80
2018-12-04T23:03:02.064Z,5.27
2018-12-04T23:05:31.273Z,4.47
2018-12-04T23:08:00.417Z,4.70
2018-12-04T23:10:29.561Z,5.73
2018-12-04T23:12:58.728Z,8.93
2018-12-04T23:15:27.875Z,9.37
2018-12-04T23:17:57.038Z,9.20
2018-12-04T23:20:26.276Z,7.15
2018-12-04T23:22:55.482Z,7.30
2018-12-04T23:25:24.857Z,7.43
2018-12-04T23:27:53.948Z,5.80
2018-12-04T23:30:23.114Z,9.80
2018-12-04T23:32:52.260Z,10.70
2018-12-04T23:35:21.768Z,12.70
2018-12-04T23:37:51.736Z,12.55
2018-12-04T23:40:21.755Z,11.12
2018-12-04T23:42:51.678Z,9.50
2018-12-04T23:45:21.754Z,8.70
2018-12-04T23:47:51.770Z,8.03
2018-12-04T23:50:21.818Z,8.70
2018-12-04T23:52:51.748Z,9.85
2018-12-04T23:55:22.482Z,11.80
2018-12-04T23:57:52.104Z,10.40
